sensor_id;sensor_type;location;lat;lon;timestamp;pressure;altitude;pressure_sealevel;temperature
66795;BMP280;53698;52.738;4.752;2022-09-29T00:01:29;100163.63;;;9.18
66795;BMP280;53698;52.738;4.752;2022-09-29T00:03:55;100166.34;;;9.18
66795;BMP280;53698;52.738;4.752;2022-09-29T00:06:20;100169.84;;;9.18
66795;BMP280;53698;52.738;4.752;2022-09-29T00:08:46;100168.31;;;9.17
66795;BMP280;53698;52.738;4.752;2022-09-29T00:11:17;100170.25;;;9.17
66795;BMP280;53698;52.738;4.752;2022-09-29T00:13:44;100175.41;;;9.15
66795;BMP280;53698;52.738;4.752;2022-09-29T00:16:10;100167.97;;;9.15
66795;BMP280;53698;52.738;4.752;2022-09-29T00:18:35;100167.97;;;9.15
66795;BMP280;53698;52.738;4.752;2022-09-29T00:21:14;100175.72;;;9.17
66795;BMP280;53698;52.738;4.752;2022-09-29T00:23:40;100172.22;;;9.16
66795;BMP280;53698;52.738;4.752;2022-09-29T00:26:15;100171.31;;;9.19
66795;BMP280;53698;52.738;4.752;2022-09-29T00:28:46;100165.88;;;9.19
66795;BMP280;53698;52.738;4.752;2022-09-29T00:31:13;100163.63;;;9.18
66795;BMP280;53698;52.738;4.752;2022-09-29T00:33:39;100158.63;;;9.16
66795;BMP280;53698;52.738;4.752;2022-09-29T00:36:10;100163.78;;;9.15
66795;BMP280;53698;52.738;4.752;2022-09-29T00:38:36;100159.22;;;9.12
66795;BMP280;53698;52.738;4.752;2022-09-29T00:41:03;100166.63;;;9.11
66795;BMP280;53698;52.738;4.752;2022-09-29T00:46:12;100168.72;;;9.07
66795;BMP280;53698;52.738;4.752;2022-09-29T00:48:39;100162.53;;;9.07
66795;BMP280;53698;52.738;4.752;2022-09-29T00:51:05;100163.44;;;9.04
66795;BMP280;53698;52.738;4.752;2022-09-29T00:53:31;100160.38;;;9.02
66795;BMP280;53698;52.738;4.752;2022-09-29T00:56:02;100156.59;;;8.99
66795;BMP280;53698;52.738;4.752;2022-09-29T00:58:35;100155.22;;;8.95
66795;BMP280;53698;52.738;4.752;2022-09-29T01:01:03;100167.00;;;8.92
66795;BMP280;53698;52.738;4.752;2022-09-29T01:03:35;100165.16;;;8.89
66795;BMP280;53698;52.738;4.752;2022-09-29T01:06:52;100167.13;;;8.89
66795;BMP280;53698;52.738;4.752;2022-09-29T01:09:03;100161.97;;;8.82
66795;BMP280;53698;52.738;4.752;2022-09-29T01:11:30;100162.66;;;8.74
66795;BMP280;53698;52.738;4.752;2022-09-29T01:13:57;100156.59;;;8.70
66795;BMP280;53698;52.738;4.752;2022-09-29T01:16:28;100160.22;;;8.67
66795;BMP280;53698;52.738;4.752;2022-09-29T01:18:55;100154.78;;;8.67
66795;BMP280;53698;52.738;4.752;2022-09-29T01:21:30;100157.41;;;8.79
66795;BMP280;53698;52.738;4.752;2022-09-29T01:24:13;100165.75;;;8.84
66795;BMP280;53698;52.738;4.752;2022-09-29T01:30:04;100165.94;;;8.69
66795;BMP280;53698;52.738;4.752;2022-09-29T01:35:00;100170.59;;;8.60
66795;BMP280;53698;52.738;4.752;2022-09-29T01:43:35;100173.38;;;8.47
66795;BMP280;53698;52.738;4.752;2022-09-29T01:46:10;100172.25;;;8.36
66795;BMP280;53698;52.738;4.752;2022-09-29T01:48:41;100184.75;;;8.34
66795;BMP280;53698;52.738;4.752;2022-09-29T01:51:16;100186.84;;;8.30
66795;BMP280;53698;52.738;4.752;2022-09-29T01:53:48;100185.78;;;8.28
66795;BMP280;53698;52.738;4.752;2022-09-29T01:56:34;100183.50;;;8.26
66795;BMP280;53698;52.738;4.752;2022-09-29T01:59:12;100175.94;;;8.21
66795;BMP280;53698;52.738;4.752;2022-09-29T02:01:41;100185.03;;;8.27
66795;BMP280;53698;52.738;4.752;2022-09-29T02:04:16;100180.34;;;8.28
66795;BMP280;53698;52.738;4.752;2022-09-29T02:06:52;100176.56;;;8.25
66795;BMP280;53698;52.738;4.752;2022-09-29T02:09:22;100179.38;;;8.22
66795;BMP280;53698;52.738;4.752;2022-09-29T02:11:50;100178.53;;;8.25
66795;BMP280;53698;52.738;4.752;2022-09-29T02:14:25;100181.66;;;8.23
66795;BMP280;53698;52.738;4.752;2022-09-29T02:16:58;100187.44;;;8.25
66795;BMP280;53698;52.738;4.752;2022-09-29T02:19:28;100175.03;;;8.24
66795;BMP280;53698;52.738;4.752;2022-09-29T02:21:55;100178.94;;;8.23
66795;BMP280;53698;52.738;4.752;2022-09-29T02:24:21;100179.84;;;8.20
66795;BMP280;53698;52.738;4.752;2022-09-29T02:26:47;100173.00;;;8.16
66795;BMP280;53698;52.738;4.752;2022-09-29T02:29:14;100166.81;;;8.15
66795;BMP280;53698;52.738;4.752;2022-09-29T02:31:41;100169.88;;;8.17
66795;BMP280;53698;52.738;4.752;2022-09-29T02:34:11;100172.97;;;8.28
66795;BMP280;53698;52.738;4.752;2022-09-29T02:39:33;100168.66;;;8.39
66795;BMP280;53698;52.738;4.752;2022-09-29T02:42:22;100162.59;;;8.35
66795;BMP280;53698;52.738;4.752;2022-09-29T02:55:42;100165.63;;;8.16
66795;BMP280;53698;52.738;4.752;2022-09-29T02:58:19;100173.13;;;8.13
66795;BMP280;53698;52.738;4.752;2022-09-29T03:00:48;100175.22;;;8.09
66795;BMP280;53698;52.738;4.752;2022-09-29T03:03:13;100167.94;;;8.06
66795;BMP280;53698;52.738;4.752;2022-09-29T03:05:39;100169.16;;;8.05
66795;BMP280;53698;52.738;4.752;2022-09-29T03:08:04;100178.47;;;8.04
66795;BMP280;53698;52.738;4.752;2022-09-29T03:10:29;100173.25;;;8.09
66795;BMP280;53698;52.738;4.752;2022-09-29T03:12:55;100176.91;;;8.15
66795;BMP280;53698;52.738;4.752;2022-09-29T03:15:21;100175.94;;;8.21
66795;BMP280;53698;52.738;4.752;2022-09-29T03:17:46;100173.09;;;8.25
66795;BMP280;53698;52.738;4.752;2022-09-29T03:20:11;100185.78;;;8.28
66795;BMP280;53698;52.738;4.752;2022-09-29T03:22:37;100173.72;;;8.29
66795;BMP280;53698;52.738;4.752;2022-09-29T03:25:03;100184.91;;;8.30
66795;BMP280;53698;52.738;4.752;2022-09-29T03:27:31;100185.66;;;8.31
66795;BMP280;53698;52.738;4.752;2022-09-29T03:29:56;100188.94;;;8.26
66795;BMP280;53698;52.738;4.752;2022-09-29T03:32:21;100180.59;;;8.21
66795;BMP280;53698;52.738;4.752;2022-09-29T03:34:47;100181.50;;;8.18
66795;BMP280;53698;52.738;4.752;2022-09-29T03:37:12;100191.72;;;8.14
66795;BMP280;53698;52.738;4.752;2022-09-29T03:39:38;100185.53;;;8.13
66795;BMP280;53698;52.738;4.752;2022-09-29T03:42:03;100185.06;;;8.15
66795;BMP280;53698;52.738;4.752;2022-09-29T03:44:29;100186.28;;;8.14
66795;BMP280;53698;52.738;4.752;2022-09-29T03:46:54;100182.94;;;8.10
66795;BMP280;53698;52.738;4.752;2022-09-29T03:49:19;100184.13;;;8.09
66795;BMP280;53698;52.738;4.752;2022-09-29T03:51:45;100187.16;;;8.11
66795;BMP280;53698;52.738;4.752;2022-09-29T03:54:11;100188.91;;;8.05
66795;BMP280;53698;52.738;4.752;2022-09-29T03:56:37;100187.66;;;7.97
66795;BMP280;53698;52.738;4.752;2022-09-29T03:59:03;100194.34;;;7.93
66795;BMP280;53698;52.738;4.752;2022-09-29T04:01:30;100201.56;;;7.87
66795;BMP280;53698;52.738;4.752;2022-09-29T04:03:56;100204.41;;;7.84
66795;BMP280;53698;52.738;4.752;2022-09-29T04:06:22;100197.69;;;7.76
66795;BMP280;53698;52.738;4.752;2022-09-29T04:08:47;100198.97;;;7.72
66795;BMP280;53698;52.738;4.752;2022-09-29T04:11:13;100205.22;;;7.60
66795;BMP280;53698;52.738;4.752;2022-09-29T04:13:39;100203.69;;;7.59
66795;BMP280;53698;52.738;4.752;2022-09-29T04:16:05;100205.22;;;7.60
66795;BMP280;53698;52.738;4.752;2022-09-29T04:18:31;100212.78;;;7.65
66795;BMP280;53698;52.738;4.752;2022-09-29T04:21:04;100211.06;;;7.71
66795;BMP280;53698;52.738;4.752;2022-09-29T04:23:30;100211.72;;;7.75
66795;BMP280;53698;52.738;4.752;2022-09-29T04:25:56;100218.97;;;7.78
66795;BMP280;53698;52.738;4.752;2022-09-29T04:28:22;100216.56;;;7.79
66795;BMP280;53698;52.738;4.752;2022-09-29T04:30:48;100212.31;;;7.78
66795;BMP280;53698;52.738;4.752;2022-09-29T04:33:14;100220.16;;;7.77
66795;BMP280;53698;52.738;4.752;2022-09-29T04:35:39;100224.19;;;7.72
66795;BMP280;53698;52.738;4.752;2022-09-29T04:38:04;100222.34;;;7.69
66795;BMP280;53698;52.738;4.752;2022-09-29T04:40:33;100225.59;;;7.64
66795;BMP280;53698;52.738;4.752;2022-09-29T04:42:58;100225.41;;;7.59
66795;BMP280;53698;52.738;4.752;2022-09-29T04:45:23;100228.66;;;7.54
66795;BMP280;53698;52.738;4.752;2022-09-29T04:47:49;100229.53;;;7.51
66795;BMP280;53698;52.738;4.752;2022-09-29T04:50:14;100228.00;;;7.50
66795;BMP280;53698;52.738;4.752;2022-09-29T04:52:43;100232.69;;;7.50
66795;BMP280;53698;52.738;4.752;2022-09-29T04:55:09;100241.59;;;7.50
66795;BMP280;53698;52.738;4.752;2022-09-29T04:57:38;100239.97;;;7.53
66795;BMP280;53698;52.738;4.752;2022-09-29T05:00:06;100238.44;;;7.52
66795;BMP280;53698;52.738;4.752;2022-09-29T05:02:33;100243.53;;;7.50
66795;BMP280;53698;52.738;4.752;2022-09-29T05:04:58;100244.63;;;7.52
66795;BMP280;53698;52.738;4.752;2022-09-29T05:07:23;100247.34;;;7.52
66795;BMP280;53698;52.738;4.752;2022-09-29T05:09:49;100246.13;;;7.53
66795;BMP280;53698;52.738;4.752;2022-09-29T05:12:14;100248.44;;;7.55
66795;BMP280;53698;52.738;4.752;2022-09-29T05:14:39;100249.72;;;7.50
66795;BMP280;53698;52.738;4.752;2022-09-29T05:17:05;100240.19;;;7.46
66795;BMP280;53698;52.738;4.752;2022-09-29T05:19:30;100242.16;;;7.45
66795;BMP280;53698;52.738;4.752;2022-09-29T05:21:57;100239.09;;;7.44
66795;BMP280;53698;52.738;4.752;2022-09-29T05:24:23;100244.09;;;7.45
66795;BMP280;53698;52.738;4.752;2022-09-29T05:26:48;100246.06;;;7.45
66795;BMP280;53698;52.738;4.752;2022-09-29T05:29:14;100245.19;;;7.47
66795;BMP280;53698;52.738;4.752;2022-09-29T05:31:39;100249.84;;;7.47
66795;BMP280;53698;52.738;4.752;2022-09-29T05:34:04;100252.13;;;7.48
66795;BMP280;53698;52.738;4.752;2022-09-29T05:36:30;100253.66;;;7.49
66795;BMP280;53698;52.738;4.752;2022-09-29T05:38:55;100250.06;;;7.52
66795;BMP280;53698;52.738;4.752;2022-09-29T05:41:20;100264.81;;;7.51
66795;BMP280;53698;52.738;4.752;2022-09-29T05:43:50;100262.41;;;7.53
66795;BMP280;53698;52.738;4.752;2022-09-29T05:46:18;100264.41;;;7.53
66795;BMP280;53698;52.738;4.752;2022-09-29T05:48:47;100262.13;;;7.51
66795;BMP280;53698;52.738;4.752;2022-09-29T05:51:15;100260.59;;;7.50
66795;BMP280;53698;52.738;4.752;2022-09-29T05:53:41;100271.91;;;7.49
66795;BMP280;53698;52.738;4.752;2022-09-29T05:56:11;100280.91;;;7.46
66795;BMP280;53698;52.738;4.752;2022-09-29T05:58:38;100266.22;;;7.44
66795;BMP280;53698;52.738;4.752;2022-09-29T06:01:12;100275.56;;;7.43
66795;BMP280;53698;52.738;4.752;2022-09-29T06:03:38;100284.03;;;7.45
66795;BMP280;53698;52.738;4.752;2022-09-29T06:06:08;100271.56;;;7.47
66795;BMP280;53698;52.738;4.752;2022-09-29T06:08:34;100274.91;;;7.51
66795;BMP280;53698;52.738;4.752;2022-09-29T06:11:04;100283.72;;;7.55
66795;BMP280;53698;52.738;4.752;2022-09-29T06:13:30;100285.78;;;7.63
66795;BMP280;53698;52.738;4.752;2022-09-29T06:15:57;100283.50;;;7.74
66795;BMP280;53698;52.738;4.752;2022-09-29T06:18:23;100296.72;;;7.84
66795;BMP280;53698;52.738;4.752;2022-09-29T06:20:48;100290.94;;;7.94
66795;BMP280;53698;52.738;4.752;2022-09-29T06:23:13;100292.16;;;8.05
66795;BMP280;53698;52.738;4.752;2022-09-29T06:25:39;100287.88;;;8.16
66795;BMP280;53698;52.738;4.752;2022-09-29T06:28:04;100294.16;;;8.26
66795;BMP280;53698;52.738;4.752;2022-09-29T06:30:30;100298.03;;;8.37
66795;BMP280;53698;52.738;4.752;2022-09-29T06:32:55;100296.16;;;8.46
66795;BMP280;53698;52.738;4.752;2022-09-29T06:35:20;100305.13;;;8.55
66795;BMP280;53698;52.738;4.752;2022-09-29T06:38:04;100305.09;;;8.67
66795;BMP280;53698;52.738;4.752;2022-09-29T06:40:30;100302.75;;;8.78
66795;BMP280;53698;52.738;4.752;2022-09-29T06:42:55;100311.94;;;8.93
66795;BMP280;53698;52.738;4.752;2022-09-29T06:45:21;100315.78;;;9.04
66795;BMP280;53698;52.738;4.752;2022-09-29T06:47:47;100315.53;;;9.11
66795;BMP280;53698;52.738;4.752;2022-09-29T06:50:12;100323.72;;;9.19
66795;BMP280;53698;52.738;4.752;2022-09-29T06:52:37;100326.69;;;9.33
66795;BMP280;53698;52.738;4.752;2022-09-29T06:55:03;100329.31;;;9.46
66795;BMP280;53698;52.738;4.752;2022-09-29T06:57:28;100323.81;;;9.58
66795;BMP280;53698;52.738;4.752;2022-09-29T06:59:54;100328.56;;;9.75
66795;BMP280;53698;52.738;4.752;2022-09-29T07:02:19;100333.16;;;9.86
66795;BMP280;53698;52.738;4.752;2022-09-29T07:04:45;100335.03;;;9.98
66795;BMP280;53698;52.738;4.752;2022-09-29T07:07:13;100337.31;;;10.08
66795;BMP280;53698;52.738;4.752;2022-09-29T07:09:39;100349.47;;;10.16
66795;BMP280;53698;52.738;4.752;2022-09-29T07:12:04;100344.31;;;10.18
66795;BMP280;53698;52.738;4.752;2022-09-29T07:14:30;100340.22;;;10.31
66795;BMP280;53698;52.738;4.752;2022-09-29T07:16:56;100347.84;;;10.53
66795;BMP280;53698;52.738;4.752;2022-09-29T07:19:23;100345.44;;;10.82
66795;BMP280;53698;52.738;4.752;2022-09-29T07:21:49;100345.41;;;11.08
66795;BMP280;53698;52.738;4.752;2022-09-29T07:24:14;100346.00;;;11.38
66795;BMP280;53698;52.738;4.752;2022-09-29T07:26:40;100354.25;;;11.70
66795;BMP280;53698;52.738;4.752;2022-09-29T07:29:05;100345.22;;;11.87
66795;BMP280;53698;52.738;4.752;2022-09-29T07:31:31;100348.88;;;11.84
66795;BMP280;53698;52.738;4.752;2022-09-29T07:33:56;100353.97;;;11.68
66795;BMP280;53698;52.738;4.752;2022-09-29T07:36:22;100353.41;;;11.87
66795;BMP280;53698;52.738;4.752;2022-09-29T07:38:48;100361.59;;;11.95
66795;BMP280;53698;52.738;4.752;2022-09-29T07:41:15;100360.16;;;12.08
66795;BMP280;53698;52.738;4.752;2022-09-29T07:43:40;100352.59;;;12.04
66795;BMP280;53698;52.738;4.752;2022-09-29T07:46:06;100354.06;;;12.13
66795;BMP280;53698;52.738;4.752;2022-09-29T07:48:33;100355.34;;;12.26
66795;BMP280;53698;52.738;4.752;2022-09-29T07:51:17;100360.28;;;12.37
66795;BMP280;53698;52.738;4.752;2022-09-29T07:53:42;100365.03;;;12.36
66795;BMP280;53698;52.738;4.752;2022-09-29T07:56:09;100373.13;;;12.54
66795;BMP280;53698;52.738;4.752;2022-09-29T07:58:35;100372.66;;;12.78
66795;BMP280;53698;52.738;4.752;2022-09-29T08:01:02;100375.56;;;12.97
66795;BMP280;53698;52.738;4.752;2022-09-29T08:03:30;100375.19;;;13.04
66795;BMP280;53698;52.738;4.752;2022-09-29T08:05:56;100371.31;;;13.10
66795;BMP280;53698;52.738;4.752;2022-09-29T08:08:23;100372.09;;;13.25
66795;BMP280;53698;52.738;4.752;2022-09-29T08:10:48;100372.75;;;13.34
66795;BMP280;53698;52.738;4.752;2022-09-29T08:13:13;100376.06;;;13.52
66795;BMP280;53698;52.738;4.752;2022-09-29T08:15:39;100380.63;;;13.69
66795;BMP280;53698;52.738;4.752;2022-09-29T08:18:04;100385.94;;;13.87
66795;BMP280;53698;52.738;4.752;2022-09-29T08:20:29;100382.31;;;14.09
66795;BMP280;53698;52.738;4.752;2022-09-29T08:22:55;100385.06;;;14.28
66795;BMP280;53698;52.738;4.752;2022-09-29T08:25:22;100387.03;;;14.42
66795;BMP280;53698;52.738;4.752;2022-09-29T08:27:51;100385.75;;;14.57
66795;BMP280;53698;52.738;4.752;2022-09-29T08:30:17;100396.25;;;14.59
66795;BMP280;53698;52.738;4.752;2022-09-29T08:32:42;100401.84;;;14.50
66795;BMP280;53698;52.738;4.752;2022-09-29T08:35:09;100403.41;;;14.70
66795;BMP280;53698;52.738;4.752;2022-09-29T08:37:34;100401.88;;;14.89
66795;BMP280;53698;52.738;4.752;2022-09-29T08:39:59;100403.09;;;15.02
66795;BMP280;53698;52.738;4.752;2022-09-29T08:45:40;100408.47;;;15.35
66795;BMP280;53698;52.738;4.752;2022-09-29T08:48:12;100410.72;;;15.37
66795;BMP280;53698;52.738;4.752;2022-09-29T08:50:45;100407.59;;;15.49
66795;BMP280;53698;52.738;4.752;2022-09-29T08:53:16;100421.13;;;15.52
66795;BMP280;53698;52.738;4.752;2022-09-29T08:58:19;100418.72;;;15.60
66795;BMP280;53698;52.738;4.752;2022-09-29T09:11:55;100434.84;;;16.27
66795;BMP280;53698;52.738;4.752;2022-09-29T09:15:03;100432.88;;;16.32
66795;BMP280;53698;52.738;4.752;2022-09-29T09:20:43;100432.97;;;16.48
66795;BMP280;53698;52.738;4.752;2022-09-29T09:25:40;100429.41;;;16.78
66795;BMP280;53698;52.738;4.752;2022-09-29T09:28:24;100434.88;;;16.73
66795;BMP280;53698;52.738;4.752;2022-09-29T09:30:59;100440.16;;;16.76
66795;BMP280;53698;52.738;4.752;2022-09-29T09:33:45;100438.53;;;16.89
66795;BMP280;53698;52.738;4.752;2022-09-29T09:36:18;100443.53;;;16.91
66795;BMP280;53698;52.738;4.752;2022-09-29T09:39:35;100442.34;;;17.02
66795;BMP280;53698;52.738;4.752;2022-09-29T09:41:42;100434.91;;;17.19
66795;BMP280;53698;52.738;4.752;2022-09-29T09:44:14;100441.38;;;17.16
66795;BMP280;53698;52.738;4.752;2022-09-29T09:46:45;100438.13;;;17.17
66795;BMP280;53698;52.738;4.752;2022-09-29T09:49:36;100436.19;;;17.29
66795;BMP280;53698;52.738;4.752;2022-09-29T09:52:11;100445.25;;;17.45
66795;BMP280;53698;52.738;4.752;2022-09-29T09:54:40;100446.03;;;17.56
66795;BMP280;53698;52.738;4.752;2022-09-29T10:02:20;100437.97;;;17.42
66795;BMP280;53698;52.738;4.752;2022-09-29T10:04:52;100436.72;;;17.48
66795;BMP280;53698;52.738;4.752;2022-09-29T10:07:19;100445.28;;;17.66
66795;BMP280;53698;52.738;4.752;2022-09-29T10:09:45;100443.06;;;17.76
66795;BMP280;53698;52.738;4.752;2022-09-29T10:12:16;100437.06;;;17.88
66795;BMP280;53698;52.738;4.752;2022-09-29T10:15:19;100437.84;;;17.94
66795;BMP280;53698;52.738;4.752;2022-09-29T10:17:53;100446.59;;;17.76
66795;BMP280;53698;52.738;4.752;2022-09-29T10:20:35;100442.78;;;17.63
66795;BMP280;53698;52.738;4.752;2022-09-29T10:26:15;100451.09;;;17.68
66795;BMP280;53698;52.738;4.752;2022-09-29T10:28:45;100450.06;;;17.71
66795;BMP280;53698;52.738;4.752;2022-09-29T10:31:24;100457.66;;;17.87
66795;BMP280;53698;52.738;4.752;2022-09-29T10:33:54;100455.91;;;17.84
66795;BMP280;53698;52.738;4.752;2022-09-29T10:36:22;100464.19;;;17.89
66795;BMP280;53698;52.738;4.752;2022-09-29T10:38:50;100462.69;;;18.04
66795;BMP280;53698;52.738;4.752;2022-09-29T10:41:16;100456.16;;;18.07
66795;BMP280;53698;52.738;4.752;2022-09-29T10:43:46;100453.69;;;18.20
66795;BMP280;53698;52.738;4.752;2022-09-29T10:49:22;100462.19;;;18.17
66795;BMP280;53698;52.738;4.752;2022-09-29T10:52:04;100470.97;;;18.20
66795;BMP280;53698;52.738;4.752;2022-09-29T10:54:39;100463.94;;;18.46
66795;BMP280;53698;52.738;4.752;2022-09-29T10:57:23;100463.19;;;18.67
66795;BMP280;53698;52.738;4.752;2022-09-29T10:59:50;100466.91;;;18.91
66795;BMP280;53698;52.738;4.752;2022-09-29T11:04:49;100471.41;;;18.99
66795;BMP280;53698;52.738;4.752;2022-09-29T11:07:15;100468.09;;;19.11
66795;BMP280;53698;52.738;4.752;2022-09-29T11:09:42;100469.78;;;19.25
66795;BMP280;53698;52.738;4.752;2022-09-29T11:12:31;100479.00;;;19.43
66795;BMP280;53698;52.738;4.752;2022-09-29T11:14:59;100468.41;;;19.63
66795;BMP280;53698;52.738;4.752;2022-09-29T11:17:29;100470.13;;;19.66
66795;BMP280;53698;52.738;4.752;2022-09-29T11:20:00;100475.00;;;19.50
66795;BMP280;53698;52.738;4.752;2022-09-29T11:25:13;100474.69;;;19.98
66795;BMP280;53698;52.738;4.752;2022-09-29T11:30:06;100485.75;;;20.37
66795;BMP280;53698;52.738;4.752;2022-09-29T11:35:54;100481.97;;;21.15
66795;BMP280;53698;52.738;4.752;2022-09-29T11:43:53;100497.34;;;21.75
66795;BMP280;53698;52.738;4.752;2022-09-29T11:49:41;100483.09;;;22.33
66795;BMP280;53698;52.738;4.752;2022-09-29T11:55:32;100485.13;;;22.02
66795;BMP280;53698;52.738;4.752;2022-09-29T12:03:48;100510.56;;;20.19
66795;BMP280;53698;52.738;4.752;2022-09-29T12:14:28;100485.59;;;24.33
66795;BMP280;53698;52.738;4.752;2022-09-29T12:17:06;100483.97;;;25.59
66795;BMP280;53698;52.738;4.752;2022-09-29T12:19:36;100484.28;;;25.48
66795;BMP280;53698;52.738;4.752;2022-09-29T12:22:07;100497.09;;;25.17
66795;BMP280;53698;52.738;4.752;2022-09-29T12:24:40;100492.69;;;25.97
66795;BMP280;53698;52.738;4.752;2022-09-29T12:27:17;100485.88;;;25.78
66795;BMP280;53698;52.738;4.752;2022-09-29T12:30:05;100491.44;;;25.71
66795;BMP280;53698;52.738;4.752;2022-09-29T12:32:41;100491.19;;;25.89
66795;BMP280;53698;52.738;4.752;2022-09-29T12:35:14;100493.75;;;26.51
66795;BMP280;53698;52.738;4.752;2022-09-29T12:37:55;100481.81;;;26.72
66795;BMP280;53698;52.738;4.752;2022-09-29T12:40:28;100492.41;;;26.37
66795;BMP280;53698;52.738;4.752;2022-09-29T12:43:01;100485.16;;;26.92
66795;BMP280;53698;52.738;4.752;2022-09-29T12:45:53;100496.31;;;25.78
66795;BMP280;53698;52.738;4.752;2022-09-29T12:48:31;100482.94;;;26.76
66795;BMP280;53698;52.738;4.752;2022-09-29T12:51:23;100474.72;;;27.82
66795;BMP280;53698;52.738;4.752;2022-09-29T12:56:34;100472.47;;;27.81
66795;BMP280;53698;52.738;4.752;2022-09-29T12:59:09;100483.56;;;27.64
66795;BMP280;53698;52.738;4.752;2022-09-29T13:01:37;100476.94;;;27.84
66795;BMP280;53698;52.738;4.752;2022-09-29T13:15:21;100502.38;;;25.00
66795;BMP280;53698;52.738;4.752;2022-09-29T13:21:33;100504.47;;;24.60
66795;BMP280;53698;52.738;4.752;2022-09-29T13:24:35;100503.25;;;26.40
66795;BMP280;53698;52.738;4.752;2022-09-29T13:29:51;100500.47;;;27.21
66795;BMP280;53698;52.738;4.752;2022-09-29T13:32:18;100503.84;;;26.83
66795;BMP280;53698;52.738;4.752;2022-09-29T13:34:52;100499.91;;;26.86
66795;BMP280;53698;52.738;4.752;2022-09-29T13:37:21;100500.56;;;27.52
66795;BMP280;53698;52.738;4.752;2022-09-29T13:39:55;100502.31;;;27.33
66795;BMP280;53698;52.738;4.752;2022-09-29T13:47:46;100511.34;;;27.77
66795;BMP280;53698;52.738;4.752;2022-09-29T13:50:44;100511.09;;;27.22
66795;BMP280;53698;52.738;4.752;2022-09-29T13:58:28;100505.38;;;28.19
66795;BMP280;53698;52.738;4.752;2022-09-29T14:00:56;100517.59;;;27.54
66795;BMP280;53698;52.738;4.752;2022-09-29T14:03:38;100504.50;;;28.40
66795;BMP280;53698;52.738;4.752;2022-09-29T14:09:06;100505.41;;;28.42
66795;BMP280;53698;52.738;4.752;2022-09-29T14:11:37;100509.47;;;27.79
66795;BMP280;53698;52.738;4.752;2022-09-29T14:14:15;100521.13;;;27.54
66795;BMP280;53698;52.738;4.752;2022-09-29T14:19:21;100533.84;;;24.81
66795;BMP280;53698;52.738;4.752;2022-09-29T14:21:58;100546.47;;;23.39
66795;BMP280;53698;52.738;4.752;2022-09-29T14:27:30;100549.72;;;23.75
66795;BMP280;53698;52.738;4.752;2022-09-29T14:30:06;100545.19;;;24.10
66795;BMP280;53698;52.738;4.752;2022-09-29T14:32:46;100543.75;;;24.29
66795;BMP280;53698;52.738;4.752;2022-09-29T14:43:49;100560.50;;;21.52
66795;BMP280;53698;52.738;4.752;2022-09-29T14:49:39;100574.53;;;20.16
66795;BMP280;53698;52.738;4.752;2022-09-29T14:52:36;100573.56;;;20.08
66795;BMP280;53698;52.738;4.752;2022-09-29T14:55:54;100572.16;;;19.96
66795;BMP280;53698;52.738;4.752;2022-09-29T15:00:46;100589.69;;;19.43
66795;BMP280;53698;52.738;4.752;2022-09-29T15:03:23;100585.19;;;19.30
66795;BMP280;53698;52.738;4.752;2022-09-29T15:06:13;100587.25;;;19.19
66795;BMP280;53698;52.738;4.752;2022-09-29T15:08:39;100600.63;;;18.67
66795;BMP280;53698;52.738;4.752;2022-09-29T15:11:40;100595.31;;;19.01
66795;BMP280;53698;52.738;4.752;2022-09-29T15:22:04;100604.84;;;19.21
66795;BMP280;53698;52.738;4.752;2022-09-29T15:25:13;100604.06;;;19.31
66795;BMP280;53698;52.738;4.752;2022-09-29T15:27:31;100601.53;;;19.33
66795;BMP280;53698;52.738;4.752;2022-09-29T15:29:58;100606.53;;;19.45
66795;BMP280;53698;52.738;4.752;2022-09-29T15:32:26;100607.53;;;19.48
66795;BMP280;53698;52.738;4.752;2022-09-29T15:35:00;100612.63;;;19.28
66795;BMP280;53698;52.738;4.752;2022-09-29T15:37:53;100613.81;;;19.59
66795;BMP280;53698;52.738;4.752;2022-09-29T15:40:22;100620.34;;;19.67
66795;BMP280;53698;52.738;4.752;2022-09-29T15:42:48;100617.63;;;19.51
66795;BMP280;53698;52.738;4.752;2022-09-29T15:45:20;100616.81;;;19.61
66795;BMP280;53698;52.738;4.752;2022-09-29T15:47:47;100615.88;;;19.42
66795;BMP280;53698;52.738;4.752;2022-09-29T15:50:19;100622.66;;;19.36
66795;BMP280;53698;52.738;4.752;2022-09-29T15:52:45;100626.97;;;19.32
66795;BMP280;53698;52.738;4.752;2022-09-29T15:55:13;100642.56;;;19.24
66795;BMP280;53698;52.738;4.752;2022-09-29T15:57:43;100638.28;;;18.85
66795;BMP280;53698;52.738;4.752;2022-09-29T16:02:47;100643.78;;;18.48
66795;BMP280;53698;52.738;4.752;2022-09-29T16:05:18;100637.97;;;18.41
66795;BMP280;53698;52.738;4.752;2022-09-29T16:07:53;100648.75;;;18.34
66795;BMP280;53698;52.738;4.752;2022-09-29T16:10:26;100650.94;;;18.14
66795;BMP280;53698;52.738;4.752;2022-09-29T16:12:57;100656.94;;;18.01
66795;BMP280;53698;52.738;4.752;2022-09-29T16:15:32;100659.19;;;17.98
66795;BMP280;53698;52.738;4.752;2022-09-29T16:18:05;100664.47;;;18.06
66795;BMP280;53698;52.738;4.752;2022-09-29T16:20:33;100656.72;;;18.05
66795;BMP280;53698;52.738;4.752;2022-09-29T16:23:07;100669.47;;;18.02
66795;BMP280;53698;52.738;4.752;2022-09-29T16:25:32;100666.72;;;17.97
66795;BMP280;53698;52.738;4.752;2022-09-29T16:28:00;100672.19;;;17.92
66795;BMP280;53698;52.738;4.752;2022-09-29T16:30:30;100679.44;;;17.84
66795;BMP280;53698;52.738;4.752;2022-09-29T16:33:21;100690.25;;;17.87
66795;BMP280;53698;52.738;4.752;2022-09-29T16:40:49;100697.34;;;17.64
66795;BMP280;53698;52.738;4.752;2022-09-29T16:43:28;100691.25;;;17.49
66795;BMP280;53698;52.738;4.752;2022-09-29T16:46:00;100696.75;;;17.49
66795;BMP280;53698;52.738;4.752;2022-09-29T16:48:28;100698.19;;;17.39
66795;BMP280;53698;52.738;4.752;2022-09-29T16:50:56;100707.63;;;17.28
66795;BMP280;53698;52.738;4.752;2022-09-29T16:53:27;100712.63;;;17.24
66795;BMP280;53698;52.738;4.752;2022-09-29T16:56:07;100711.47;;;17.05
66795;BMP280;53698;52.738;4.752;2022-09-29T16:58:34;100710.38;;;16.98
66795;BMP280;53698;52.738;4.752;2022-09-29T17:01:01;100714.28;;;16.86
66795;BMP280;53698;52.738;4.752;2022-09-29T17:03:26;100709.94;;;16.80
66795;BMP280;53698;52.738;4.752;2022-09-29T17:05:54;100712.31;;;16.67
66795;BMP280;53698;52.738;4.752;2022-09-29T17:08:23;100714.00;;;16.59